Time;durP1;ratioP1;P1;durP2;ratioP2;P2;SDS_P1;SDS_P2;PMS_P1;PMS_P2;Temp;Humidity;BMP_temperature;BMP_pressure;BME280_temperature;BME280_humidity;BME280_pressure;Samples;Min_cycle;Max_cycle;Signal;HPM_P1;HPM_P2
2022/01/19 00:01:28;;;;;;;9.70;5.30;;;;;;;;;;5048935;28;20202;-56
2022/01/19 00:03:55;;;;;;;6.37;5.03;;;;;;;;;;5045176;28;20189;-56
2022/01/19 00:06:21;;;;;;;6.90;5.47;;;;;;;;;;5047546;28;20196;-57
2022/01/19 00:08:47;;;;;;;8.67;5.50;;;;;;;;;;5037487;28;20216;-57
2022/01/19 00:11:13;;;;;;;8.23;5.20;;;;;;;;;;5058702;28;20185;-56
2022/01/19 00:13:40;;;;;;;7.37;5.03;;;;;;;;;;5043411;28;20192;-57
2022/01/19 00:16:06;;;;;;;8.63;5.60;;;;;;;;;;5043883;28;20208;-56
2022/01/19 00:18:32;;;;;;;5.50;4.60;;;;;;;;;;5050741;28;20176;-57
2022/01/19 00:20:59;;;;;;;7.13;5.20;;;;;;;;;;5059296;28;20658;-56
2022/01/19 00:23:25;;;;;;;11.07;5.67;;;;;;;;;;5058809;28;20687;-56
2022/01/19 00:25:53;;;;;;;6.53;4.77;;;;;;;;;;5066383;28;20188;-57
2022/01/19 00:28:19;;;;;;;9.20;5.27;;;;;;;;;;5055011;28;20176;-56
2022/01/19 00:30:46;;;;;;;7.23;5.23;;;;;;;;;;5046427;28;20226;-56
2022/01/19 00:33:15;;;;;;;10.83;5.03;;;;;;;;;;5053114;28;20189;-56
2022/01/19 00:35:41;;;;;;;9.30;5.47;;;;;;;;;;5063314;28;20201;-57
2022/01/19 00:38:08;;;;;;;5.13;4.07;;;;;;;;;;5060210;28;20205;-56
2022/01/19 00:40:35;;;;;;;8.30;4.60;;;;;;;;;;5066708;28;20177;-56
2022/01/19 00:43:05;;;;;;;5.63;4.30;;;;;;;;;;5051955;28;20184;-56
2022/01/19 00:45:31;;;;;;;7.07;4.87;;;;;;;;;;5057480;28;20188;-57
2022/01/19 00:47:58;;;;;;;6.07;4.53;;;;;;;;;;5064327;28;20185;-57
2022/01/19 00:50:26;;;;;;;10.70;5.90;;;;;;;;;;5066688;28;20181;-57
2022/01/19 00:52:52;;;;;;;8.03;5.13;;;;;;;;;;5062202;28;20352;-57
2022/01/19 00:55:20;;;;;;;7.90;5.33;;;;;;;;;;5088174;28;20215;-56
2022/01/19 00:57:46;;;;;;;7.57;5.53;;;;;;;;;;5064432;28;20556;-55
2022/01/19 01:00:16;;;;;;;9.47;5.23;;;;;;;;;;5069508;28;20574;-57
2022/01/19 01:02:43;;;;;;;8.77;4.97;;;;;;;;;;5069454;28;20180;-56
2022/01/19 01:05:12;;;;;;;8.17;5.17;;;;;;;;;;5083751;28;20749;-55
2022/01/19 01:07:39;;;;;;;8.73;5.03;;;;;;;;;;5090367;28;20183;-57
2022/01/19 01:10:10;;;;;;;6.07;4.73;;;;;;;;;;5082388;28;20214;-56
2022/01/19 01:15:35;;;;;;;5.47;4.37;;;;;;;;;;5081412;28;20238;-56
2022/01/19 01:20:35;;;;;;;6.23;4.53;;;;;;;;;;5085364;28;20187;-57
2022/01/19 01:23:02;;;;;;;6.40;4.60;;;;;;;;;;5070590;28;20621;-57
2022/01/19 01:25:28;;;;;;;6.70;4.90;;;;;;;;;;5092071;28;20206;-57
2022/01/19 01:27:54;;;;;;;6.10;4.43;;;;;;;;;;5070894;28;20450;-55
2022/01/19 01:30:21;;;;;;;7.43;4.67;;;;;;;;;;5080643;28;20652;-56
2022/01/19 01:32:47;;;;;;;5.93;4.40;;;;;;;;;;5078399;28;20263;-55
2022/01/19 01:35:13;;;;;;;6.57;4.57;;;;;;;;;;5071426;28;20230;-55
2022/01/19 01:37:39;;;;;;;5.53;4.30;;;;;;;;;;5072931;28;20280;-55
2022/01/19 01:40:08;;;;;;;4.83;4.17;;;;;;;;;;5062437;28;20185;-55
2022/01/19 01:42:34;;;;;;;7.00;4.17;;;;;;;;;;5056140;28;20187;-55
2022/01/19 01:45:01;;;;;;;6.87;4.83;;;;;;;;;;5078654;28;20180;-55
2022/01/19 01:47:29;;;;;;;6.60;4.60;;;;;;;;;;5053201;28;20586;-55
2022/01/19 01:55:12;;;;;;;6.50;4.30;;;;;;;;;;5084281;28;20299;-56
2022/01/19 01:57:39;;;;;;;5.97;4.37;;;;;;;;;;5090371;28;20660;-55
2022/01/19 02:00:08;;;;;;;6.33;4.60;;;;;;;;;;5081803;28;20710;-54
2022/01/19 02:02:34;;;;;;;5.40;3.67;;;;;;;;;;5074812;28;20206;-56
2022/01/19 02:05:01;;;;;;;8.40;4.37;;;;;;;;;;5075614;28;20679;-55
2022/01/19 02:08:20;;;;;;;6.00;4.77;;;;;;;;;;5064721;28;20240;-55
2022/01/19 02:10:58;;;;;;;4.50;3.90;;;;;;;;;;5072376;28;20190;-56
2022/01/19 02:16:13;;;;;;;5.83;4.00;;;;;;;;;;5086922;28;20206;-55
2022/01/19 02:21:46;;;;;;;5.67;4.20;;;;;;;;;;5081784;28;20237;-55
2022/01/19 02:24:19;;;;;;;5.33;4.00;;;;;;;;;;5065298;28;20784;-55
2022/01/19 02:40:18;;;;;;;8.70;5.07;;;;;;;;;;5083283;28;20195;-55
2022/01/19 02:50:40;;;;;;;8.10;4.67;;;;;;;;;;5081446;28;20196;-56
2022/01/19 02:53:07;;;;;;;5.33;4.47;;;;;;;;;;5080808;28;20717;-56
2022/01/19 02:55:36;;;;;;;5.50;4.73;;;;;;;;;;5065141;28;20839;-56
2022/01/19 02:58:02;;;;;;;5.73;5.03;;;;;;;;;;5059206;28;20231;-56
2022/01/19 03:11:10;;;;;;;5.70;4.73;;;;;;;;;;5086536;28;20509;-56
2022/01/19 03:13:36;;;;;;;5.57;5.07;;;;;;;;;;5069777;28;20434;-56
2022/01/19 03:16:03;;;;;;;6.03;5.13;;;;;;;;;;5062045;28;20547;-56
2022/01/19 03:18:30;;;;;;;7.07;5.47;;;;;;;;;;5089086;28;20210;-56
2022/01/19 03:20:56;;;;;;;5.07;4.17;;;;;;;;;;5084359;28;20773;-55
2022/01/19 03:23:23;;;;;;;5.50;5.00;;;;;;;;;;5069489;28;20414;-55
2022/01/19 03:25:49;;;;;;;9.50;6.40;;;;;;;;;;5086081;28;20179;-54
2022/01/19 03:28:16;;;;;;;6.47;5.50;;;;;;;;;;5066468;28;21945;-56
2022/01/19 03:30:43;;;;;;;7.67;6.03;;;;;;;;;;5079978;28;20183;-56
2022/01/19 03:33:10;;;;;;;6.13;5.53;;;;;;;;;;5061229;28;20184;-55
2022/01/19 03:35:39;;;;;;;7.00;6.30;;;;;;;;;;5086788;28;20199;-55
2022/01/19 03:38:09;;;;;;;6.73;6.07;;;;;;;;;;5067324;28;20182;-56
2022/01/19 03:40:36;;;;;;;7.73;5.73;;;;;;;;;;5062678;28;20937;-57
2022/01/19 03:43:05;;;;;;;5.93;5.40;;;;;;;;;;5073392;28;20179;-56
2022/01/19 03:45:36;;;;;;;6.80;6.13;;;;;;;;;;5059915;28;20652;-57
2022/01/19 03:50:35;;;;;;;7.93;7.07;;;;;;;;;;5077745;28;20211;-57
2022/01/19 03:53:01;;;;;;;7.47;6.20;;;;;;;;;;5067979;28;20216;-57
2022/01/19 03:55:28;;;;;;;6.90;6.17;;;;;;;;;;5058006;28;20211;-57
2022/01/19 03:57:54;;;;;;;7.03;6.37;;;;;;;;;;5078113;28;20198;-57
2022/01/19 04:00:21;;;;;;;7.00;6.20;;;;;;;;;;5081267;28;20638;-57
2022/01/19 04:02:48;;;;;;;6.97;6.27;;;;;;;;;;5073209;28;20220;-57
2022/01/19 04:05:38;;;;;;;6.90;6.20;;;;;;;;;;5075507;28;20176;-57
2022/01/19 04:08:05;;;;;;;9.10;7.03;;;;;;;;;;5057017;28;20839;-57
2022/01/19 04:10:31;;;;;;;7.53;6.43;;;;;;;;;;5067709;28;20523;-57
2022/01/19 04:13:10;;;;;;;7.23;6.43;;;;;;;;;;5063097;28;20195;-56
2022/01/19 04:15:39;;;;;;;8.33;7.43;;;;;;;;;;5063517;28;20204;-56
2022/01/19 04:18:05;;;;;;;10.77;7.30;;;;;;;;;;5067900;28;20176;-56
2022/01/19 04:20:40;;;;;;;8.97;7.60;;;;;;;;;;5075022;28;20180;-57
2022/01/19 04:23:07;;;;;;;12.53;7.93;;;;;;;;;;5067051;28;20414;-58
2022/01/19 04:25:36;;;;;;;13.43;8.43;;;;;;;;;;5082079;28;20229;-57
2022/01/19 04:28:07;;;;;;;13.53;8.93;;;;;;;;;;5053732;28;20282;-57
2022/01/19 04:30:43;;;;;;;11.87;9.30;;;;;;;;;;5065187;28;20615;-57
2022/01/19 04:33:17;;;;;;;13.80;10.40;;;;;;;;;;5065784;28;20176;-57
2022/01/19 04:35:54;;;;;;;11.43;8.90;;;;;;;;;;5059942;28;20211;-57
2022/01/19 05:03:02;;;;;;;14.67;11.07;;;;;;;;;;5073564;28;20246;-56
2022/01/19 05:05:37;;;;;;;17.53;10.90;;;;;;;;;;5078974;28;20192;-57
2022/01/19 05:15:51;;;;;;;14.67;11.20;;;;;;;;;;5076665;28;20200;-57
2022/01/19 05:18:18;;;;;;;14.33;11.03;;;;;;;;;;5079576;28;20180;-57
2022/01/19 05:20:45;;;;;;;15.47;9.83;;;;;;;;;;5064668;28;20172;-57
2022/01/19 05:23:20;;;;;;;18.47;10.67;;;;;;;;;;5065502;28;20179;-57
2022/01/19 05:25:53;;;;;;;12.73;10.33;;;;;;;;;;5066731;28;20180;-57
2022/01/19 05:28:19;;;;;;;13.90;10.03;;;;;;;;;;5064147;28;20217;-57
2022/01/19 05:30:45;;;;;;;15.23;10.00;;;;;;;;;;5061336;28;20219;-57
2022/01/19 05:33:12;;;;;;;15.10;9.50;;;;;;;;;;5089872;28;20176;-57
2022/01/19 05:35:38;;;;;;;12.47;9.53;;;;;;;;;;5072588;28;20705;-57
2022/01/19 05:38:09;;;;;;;11.50;8.67;;;;;;;;;;5076654;28;20681;-57
2022/01/19 05:40:36;;;;;;;14.97;9.80;;;;;;;;;;5062831;28;20172;-57
2022/01/19 05:43:02;;;;;;;12.20;9.67;;;;;;;;;;5080548;28;20238;-57
2022/01/19 05:45:31;;;;;;;10.63;9.33;;;;;;;;;;5077999;28;20777;-57
2022/01/19 05:48:01;;;;;;;12.83;9.17;;;;;;;;;;5062909;28;20184;-57
2022/01/19 05:50:30;;;;;;;13.00;9.93;;;;;;;;;;5067755;28;20689;-57
2022/01/19 05:52:59;;;;;;;11.37;9.47;;;;;;;;;;5052940;28;20223;-57
2022/01/19 05:55:29;;;;;;;11.00;8.80;;;;;;;;;;5074745;28;20192;-57
2022/01/19 05:57:55;;;;;;;10.90;9.17;;;;;;;;;;5075119;28;20196;-57
2022/01/19 06:00:21;;;;;;;10.13;8.90;;;;;;;;;;5084648;28;20183;-57
2022/01/19 06:02:48;;;;;;;11.70;9.10;;;;;;;;;;5079279;28;20718;-57
2022/01/19 06:05:14;;;;;;;10.47;9.03;;;;;;;;;;5065637;28;20195;-57
2022/01/19 06:07:44;;;;;;;11.20;9.53;;;;;;;;;;5064661;28;20457;-57
2022/01/19 06:10:12;;;;;;;11.47;9.47;;;;;;;;;;5089272;28;20651;-57
2022/01/19 06:12:38;;;;;;;10.43;8.90;;;;;;;;;;5071330;28;20790;-57
2022/01/19 06:15:05;;;;;;;14.30;10.50;;;;;;;;;;5078572;28;20675;-57
2022/01/19 06:17:32;;;;;;;10.53;8.70;;;;;;;;;;5079896;28;20183;-57
2022/01/19 06:19:58;;;;;;;14.33;9.70;;;;;;;;;;5080023;28;20626;-57
2022/01/19 06:22:24;;;;;;;10.50;8.53;;;;;;;;;;5086862;28;20176;-57
2022/01/19 06:24:50;;;;;;;12.57;8.10;;;;;;;;;;5066890;28;21055;-58
2022/01/19 06:27:17;;;;;;;10.77;9.50;;;;;;;;;;5077064;28;20183;-57
2022/01/19 06:29:43;;;;;;;10.87;8.77;;;;;;;;;;5089438;28;20168;-57
2022/01/19 06:32:10;;;;;;;13.57;9.23;;;;;;;;;;5088117;28;20205;-57
2022/01/19 06:34:36;;;;;;;11.57;9.33;;;;;;;;;;5086245;28;20192;-57
2022/01/19 06:37:05;;;;;;;10.87;8.87;;;;;;;;;;5069899;28;20179;-57
2022/01/19 06:39:31;;;;;;;9.87;8.37;;;;;;;;;;5060289;28;20179;-57
2022/01/19 06:41:57;;;;;;;11.77;10.17;;;;;;;;;;5071983;28;20172;-58
2022/01/19 06:44:23;;;;;;;13.10;9.20;;;;;;;;;;5066124;28;20203;-58
2022/01/19 06:46:50;;;;;;;11.73;8.80;;;;;;;;;;5059042;28;20197;-58
2022/01/19 06:49:16;;;;;;;13.50;9.23;;;;;;;;;;5072685;28;20642;-58
2022/01/19 06:51:42;;;;;;;14.33;9.33;;;;;;;;;;5084464;28;20792;-58
2022/01/19 06:54:09;;;;;;;13.63;9.07;;;;;;;;;;5038382;28;20218;-58
2022/01/19 06:56:37;;;;;;;12.40;9.13;;;;;;;;;;5071346;28;20211;-58
2022/01/19 06:59:04;;;;;;;12.50;9.17;;;;;;;;;;5089775;28;20175;-56
2022/01/19 07:01:32;;;;;;;12.07;9.60;;;;;;;;;;5080764;28;20619;-58
2022/01/19 07:04:01;;;;;;;13.27;9.80;;;;;;;;;;5071300;28;20225;-55
2022/01/19 07:06:27;;;;;;;11.53;8.90;;;;;;;;;;5088179;28;20233;-55
2022/01/19 07:08:53;;;;;;;11.53;9.23;;;;;;;;;;5069916;28;20188;-55
2022/01/19 07:11:20;;;;;;;12.87;9.87;;;;;;;;;;5067495;28;20176;-55
2022/01/19 07:13:46;;;;;;;9.57;8.57;;;;;;;;;;5070369;28;20191;-55
2022/01/19 07:16:12;;;;;;;10.13;8.70;;;;;;;;;;5070289;28;20563;-55
2022/01/19 07:18:41;;;;;;;11.87;10.03;;;;;;;;;;5089566;28;20160;-55
2022/01/19 07:21:13;;;;;;;14.85;11.88;;;;;;;;;;5054233;28;20465;-56
2022/01/19 07:23:43;;;;;;;12.33;10.43;;;;;;;;;;5051474;28;20882;-56
2022/01/19 07:26:09;;;;;;;13.00;10.20;;;;;;;;;;5078310;28;20192;-56
2022/01/19 07:28:35;;;;;;;14.27;10.40;;;;;;;;;;5079406;28;20175;-56
2022/01/19 07:31:01;;;;;;;11.93;9.67;;;;;;;;;;5086998;28;20180;-56
2022/01/19 07:33:27;;;;;;;11.67;9.90;;;;;;;;;;5088965;28;20605;-56
2022/01/19 07:35:54;;;;;;;12.90;8.87;;;;;;;;;;5071749;28;20293;-56
2022/01/19 07:38:27;;;;;;;11.63;10.07;;;;;;;;;;5082170;28;20168;-57
2022/01/19 07:40:57;;;;;;;12.23;9.53;;;;;;;;;;5070341;28;20183;-56
2022/01/19 07:43:23;;;;;;;10.57;9.30;;;;;;;;;;5059895;28;20207;-56
2022/01/19 07:45:52;;;;;;;12.07;9.30;;;;;;;;;;5085242;28;20187;-56
2022/01/19 07:48:18;;;;;;;11.73;9.30;;;;;;;;;;5070522;28;20267;-56
2022/01/19 07:50:45;;;;;;;12.43;9.80;;;;;;;;;;5088347;28;20211;-56
2022/01/19 07:53:11;;;;;;;13.70;9.77;;;;;;;;;;5087312;28;20239;-56
2022/01/19 07:55:40;;;;;;;12.73;10.00;;;;;;;;;;5087407;28;20584;-56
2022/01/19 07:58:06;;;;;;;10.77;9.30;;;;;;;;;;5088507;28;21020;-56
2022/01/19 08:00:36;;;;;;;13.50;10.43;;;;;;;;;;5079868;28;20202;-56
2022/01/19 08:03:04;;;;;;;12.90;9.87;;;;;;;;;;5069564;28;20186;-56
2022/01/19 08:05:31;;;;;;;13.03;10.07;;;;;;;;;;5081325;28;20183;-56
2022/01/19 08:08:02;;;;;;;11.53;9.63;;;;;;;;;;5054096;28;20184;-56
2022/01/19 08:10:29;;;;;;;12.80;11.13;;;;;;;;;;5068702;28;20187;-56
2022/01/19 08:12:56;;;;;;;15.33;10.97;;;;;;;;;;5087253;28;20233;-56
2022/01/19 08:15:25;;;;;;;13.83;9.10;;;;;;;;;;5069265;28;20200;-57
2022/01/19 08:17:51;;;;;;;12.90;10.73;;;;;;;;;;5064090;28;20660;-56
2022/01/19 08:20:18;;;;;;;11.57;9.73;;;;;;;;;;5069799;28;20188;-56
2022/01/19 08:22:45;;;;;;;10.97;9.47;;;;;;;;;;5065885;28;20292;-56
2022/01/19 08:25:14;;;;;;;13.67;10.07;;;;;;;;;;5073861;28;20705;-56
2022/01/19 08:27:40;;;;;;;12.03;9.77;;;;;;;;;;5050834;28;20179;-56
2022/01/19 08:30:14;;;;;;;13.50;10.33;;;;;;;;;;5064555;28;20635;-56
2022/01/19 08:32:41;;;;;;;12.87;10.93;;;;;;;;;;5084178;28;20173;-56
2022/01/19 08:35:08;;;;;;;12.23;10.43;;;;;;;;;;5077880;28;20257;-56
2022/01/19 08:37:34;;;;;;;11.90;10.03;;;;;;;;;;5068006;28;20180;-56
2022/01/19 08:40:01;;;;;;;12.27;10.17;;;;;;;;;;5088234;28;20198;-56
2022/01/19 08:42:28;;;;;;;13.00;10.70;;;;;;;;;;5085673;28;20171;-56
2022/01/19 08:44:55;;;;;;;13.63;10.80;;;;;;;;;;5072183;28;20245;-57
2022/01/19 08:47:22;;;;;;;11.00;9.77;;;;;;;;;;5049217;28;20180;-56
2022/01/19 08:49:51;;;;;;;12.07;10.23;;;;;;;;;;5058653;28;20237;-56
2022/01/19 08:52:18;;;;;;;14.37;10.47;;;;;;;;;;5056196;28;20432;-56
2022/01/19 08:54:45;;;;;;;12.90;10.30;;;;;;;;;;5075089;28;20210;-56
2022/01/19 08:57:15;;;;;;;12.27;10.40;;;;;;;;;;5081814;28;20670;-56
2022/01/19 08:59:41;;;;;;;11.80;9.73;;;;;;;;;;5077720;28;20184;-56
2022/01/19 09:02:07;;;;;;;17.13;11.17;;;;;;;;;;5070259;28;20188;-56
2022/01/19 09:04:40;;;;;;;13.57;10.87;;;;;;;;;;5092050;28;20253;-56
2022/01/19 09:07:06;;;;;;;15.53;11.50;;;;;;;;;;5081428;28;20185;-56
2022/01/19 09:09:32;;;;;;;11.47;10.07;;;;;;;;;;5095449;28;20188;-57
2022/01/19 09:11:58;;;;;;;11.53;9.87;;;;;;;;;;5086667;28;20210;-57
2022/01/19 09:14:25;;;;;;;12.67;10.33;;;;;;;;;;5073209;28;20269;-57
2022/01/19 09:16:51;;;;;;;13.30;11.27;;;;;;;;;;5090301;28;20689;-56
2022/01/19 09:19:19;;;;;;;13.43;11.30;;;;;;;;;;5043119;28;20180;-56
2022/01/19 09:21:45;;;;;;;12.87;10.33;;;;;;;;;;5072893;28;20207;-56
2022/01/19 09:24:11;;;;;;;13.97;11.07;;;;;;;;;;5072428;28;20180;-56
2022/01/19 09:26:38;;;;;;;12.73;11.13;;;;;;;;;;5067285;28;20278;-56
2022/01/19 09:29:04;;;;;;;12.23;10.70;;;;;;;;;;5073249;28;20219;-56
2022/01/19 09:31:32;;;;;;;14.17;10.93;;;;;;;;;;5071508;28;20332;-56
2022/01/19 09:34:14;;;;;;;13.10;11.13;;;;;;;;;;5089663;28;20194;-56
2022/01/19 09:36:45;;;;;;;11.60;10.40;;;;;;;;;;5071106;28;20844;-56
2022/01/19 09:39:13;;;;;;;12.87;10.60;;;;;;;;;;5074509;28;20216;-56
2022/01/19 09:41:41;;;;;;;12.93;10.60;;;;;;;;;;5066089;28;20356;-56
2022/01/19 09:44:13;;;;;;;12.70;11.07;;;;;;;;;;5049632;28;20546;-56
2022/01/19 09:46:40;;;;;;;12.47;10.90;;;;;;;;;;5055009;28;20647;-57
2022/01/19 09:49:06;;;;;;;12.40;10.07;;;;;;;;;;5067854;28;20539;-56
2022/01/19 09:51:32;;;;;;;13.03;10.07;;;;;;;;;;5084447;28;20684;-56
2022/01/19 09:53:59;;;;;;;11.40;9.93;;;;;;;;;;5082390;28;20187;-56
2022/01/19 09:56:25;;;;;;;13.23;10.43;;;;;;;;;;5069629;28;20302;-56
2022/01/19 09:58:54;;;;;;;13.30;11.00;;;;;;;;;;5084829;28;20597;-56
2022/01/19 10:01:22;;;;;;;12.70;11.37;;;;;;;;;;5062024;28;20310;-56
2022/01/19 10:03:48;;;;;;;13.10;10.93;;;;;;;;;;5069448;28;20629;-56
2022/01/19 10:06:16;;;;;;;14.27;10.93;;;;;;;;;;5087792;28;20196;-56
2022/01/19 10:08:42;;;;;;;13.17;11.67;;;;;;;;;;5086661;28;20710;-56
2022/01/19 10:11:21;;;;;;;12.20;10.77;;;;;;;;;;5065397;28;20180;-57
2022/01/19 10:17:02;;;;;;;12.80;10.90;;;;;;;;;;5054533;28;20219;-57
2022/01/19 10:19:30;;;;;;;11.87;10.53;;;;;;;;;;5089059;28;20672;-56
2022/01/19 10:22:02;;;;;;;14.10;11.50;;;;;;;;;;5071939;28;20275;-56
2022/01/19 10:24:48;;;;;;;13.90;10.93;;;;;;;;;;5060013;28;20267;-56
2022/01/19 10:27:34;;;;;;;13.63;11.40;;;;;;;;;;5070750;28;20195;-56
2022/01/19 10:30:03;;;;;;;15.00;10.50;;;;;;;;;;5090095;28;20187;-56
2022/01/19 10:32:37;;;;;;;12.80;10.37;;;;;;;;;;5072776;28;20190;-56
2022/01/19 10:35:15;;;;;;;14.43;11.33;;;;;;;;;;5084679;28;20217;-56
2022/01/19 10:37:42;;;;;;;14.47;12.23;;;;;;;;;;5059201;28;20195;-56
2022/01/19 10:40:13;;;;;;;14.37;11.47;;;;;;;;;;5068252;28;20316;-56
2022/01/19 10:42:39;;;;;;;12.37;10.53;;;;;;;;;;5089555;28;20176;-56
2022/01/19 10:45:10;;;;;;;12.23;10.47;;;;;;;;;;5078373;28;20191;-56
2022/01/19 10:47:42;;;;;;;14.97;11.33;;;;;;;;;;5053889;28;20237;-56
2022/01/19 10:50:32;;;;;;;14.57;12.13;;;;;;;;;;5072419;28;20808;-56
2022/01/19 10:52:59;;;;;;;15.07;12.13;;;;;;;;;;5061474;28;20216;-56
2022/01/19 10:55:28;;;;;;;13.40;11.50;;;;;;;;;;5083631;28;20207;-56
2022/01/19 10:57:55;;;;;;;13.50;10.83;;;;;;;;;;5070448;28;20211;-56
2022/01/19 11:00:24;;;;;;;13.37;11.63;;;;;;;;;;5085799;28;20199;-56
2022/01/19 11:02:51;;;;;;;13.13;11.77;;;;;;;;;;5068452;28;20207;-56
2022/01/19 11:05:18;;;;;;;13.83;11.53;;;;;;;;;;5084052;28;20183;-56
2022/01/19 11:07:44;;;;;;;14.30;11.67;;;;;;;;;;5075974;28;20216;-56
2022/01/19 11:12:49;;;;;;;13.83;11.73;;;;;;;;;;5077577;28;20184;-56
2022/01/19 11:15:20;;;;;;;13.13;11.70;;;;;;;;;;5078787;28;20211;-56
2022/01/19 11:17:48;;;;;;;13.47;12.03;;;;;;;;;;5069922;28;20171;-56
2022/01/19 11:20:16;;;;;;;13.90;12.30;;;;;;;;;;5070624;28;20187;-56
2022/01/19 11:23:01;;;;;;;13.70;12.30;;;;;;;;;;5088814;28;20176;-57
2022/01/19 11:25:46;;;;;;;13.60;11.20;;;;;;;;;;5065455;28;20233;-56
2022/01/19 11:28:24;;;;;;;13.40;11.57;;;;;;;;;;5086592;28;20207;-56
2022/01/19 11:30:50;;;;;;;14.40;11.50;;;;;;;;;;5069950;28;20176;-55
2022/01/19 11:33:24;;;;;;;12.00;10.80;;;;;;;;;;5069371;28;20211;-56
2022/01/19 11:35:51;;;;;;;14.50;11.93;;;;;;;;;;5070196;28;20325;-56
2022/01/19 11:38:38;;;;;;;12.17;10.87;;;;;;;;;;5058342;28;20188;-56
2022/01/19 11:41:13;;;;;;;13.07;11.70;;;;;;;;;;5078635;28;20192;-56
2022/01/19 11:43:48;;;;;;;13.20;11.60;;;;;;;;;;5054210;28;20183;-56
2022/01/19 11:46:33;;;;;;;13.13;11.03;;;;;;;;;;5086030;28;20178;-56
2022/01/19 11:49:03;;;;;;;13.47;11.43;;;;;;;;;;5067534;28;20183;-56
2022/01/19 11:51:31;;;;;;;15.47;12.10;;;;;;;;;;5071799;28;20216;-56
2022/01/19 11:54:00;;;;;;;15.67;11.17;;;;;;;;;;5063657;28;20603;-56
2022/01/19 11:56:27;;;;;;;13.47;11.00;;;;;;;;;;5083711;28;20228;-56
2022/01/19 11:59:12;;;;;;;14.10;12.07;;;;;;;;;;5079774;28;20212;-56
2022/01/19 12:01:39;;;;;;;13.50;11.73;;;;;;;;;;5054205;28;20187;-56
2022/01/19 12:04:15;;;;;;;14.20;12.07;;;;;;;;;;5074251;28;20183;-56
2022/01/19 12:06:42;;;;;;;13.07;11.20;;;;;;;;;;5088502;28;20225;-57
2022/01/19 12:09:11;;;;;;;13.73;11.20;;;;;;;;;;5088553;28;20179;-56
2022/01/19 12:11:42;;;;;;;13.23;11.83;;;;;;;;;;5053905;28;20179;-56
2022/01/19 12:14:16;;;;;;;13.63;11.80;;;;;;;;;;5058786;28;20186;-56
2022/01/19 12:16:53;;;;;;;13.43;11.97;;;;;;;;;;5066961;28;20257;-56
2022/01/19 12:19:21;;;;;;;14.20;11.87;;;;;;;;;;5072396;28;20178;-57
2022/01/19 12:22:11;;;;;;;12.90;11.53;;;;;;;;;;5068848;28;20180;-57
2022/01/19 12:24:44;;;;;;;14.63;11.00;;;;;;;;;;5075057;28;20702;-56
2022/01/19 12:27:16;;;;;;;14.47;12.10;;;;;;;;;;5085686;28;20187;-57
2022/01/19 12:29:44;;;;;;;14.43;11.93;;;;;;;;;;5087364;28;20175;-57
2022/01/19 12:32:20;;;;;;;13.57;11.47;;;;;;;;;;5059115;28;20521;-57
2022/01/19 12:34:50;;;;;;;13.23;11.70;;;;;;;;;;5059229;28;20310;-56
2022/01/19 12:37:25;;;;;;;15.00;12.67;;;;;;;;;;5086474;28;20228;-56
2022/01/19 12:39:59;;;;;;;15.07;12.30;;;;;;;;;;5084162;28;20176;-57
2022/01/19 12:42:31;;;;;;;16.13;12.67;;;;;;;;;;5083057;28;20184;-57
2022/01/19 12:45:01;;;;;;;13.43;11.73;;;;;;;;;;5087684;28;20178;-57
2022/01/19 12:47:27;;;;;;;14.30;12.00;;;;;;;;;;5052884;28;20168;-57
2022/01/19 12:49:57;;;;;;;15.53;11.97;;;;;;;;;;5064296;28;20191;-57
2022/01/19 12:52:30;;;;;;;14.77;11.90;;;;;;;;;;5087857;28;20300;-57
2022/01/19 12:55:08;;;;;;;16.10;12.83;;;;;;;;;;5081424;28;20179;-57
2022/01/19 12:57:35;;;;;;;14.60;12.23;;;;;;;;;;5086330;28;20207;-57
2022/01/19 13:00:04;;;;;;;14.90;12.37;;;;;;;;;;5075733;28;20267;-57
2022/01/19 13:02:31;;;;;;;15.80;12.50;;;;;;;;;;5070388;28;20268;-57
2022/01/19 13:05:08;;;;;;;15.60;13.63;;;;;;;;;;5067597;28;20603;-57
2022/01/19 13:07:37;;;;;;;16.90;13.10;;;;;;;;;;5050067;28;20187;-58
2022/01/19 13:10:26;;;;;;;15.07;12.20;;;;;;;;;;5077996;28;20216;-57
2022/01/19 13:12:59;;;;;;;16.10;13.37;;;;;;;;;;5068536;28;20642;-57
2022/01/19 13:15:44;;;;;;;17.33;13.47;;;;;;;;;;5086801;28;20192;-57
2022/01/19 13:18:12;;;;;;;14.70;12.70;;;;;;;;;;5086924;28;20271;-57
2022/01/19 13:20:48;;;;;;;14.33;12.63;;;;;;;;;;5057858;28;20180;-57
2022/01/19 13:23:14;;;;;;;17.93;13.40;;;;;;;;;;5067146;28;20278;-57
2022/01/19 13:25:40;;;;;;;15.73;13.57;;;;;;;;;;5073453;28;20185;-57
2022/01/19 13:28:07;;;;;;;17.00;13.40;;;;;;;;;;5081741;28;20418;-57
2022/01/19 13:30:36;;;;;;;15.03;13.33;;;;;;;;;;5086591;28;20241;-56
2022/01/19 13:33:10;;;;;;;15.93;13.67;;;;;;;;;;5077807;28;20180;-56
2022/01/19 13:35:37;;;;;;;15.20;12.07;;;;;;;;;;5066897;28;20202;-57
2022/01/19 13:38:11;;;;;;;16.00;12.67;;;;;;;;;;5069596;28;20263;-57
2022/01/19 13:40:38;;;;;;;17.50;14.13;;;;;;;;;;5057532;28;20691;-56
2022/01/19 13:43:05;;;;;;;16.57;12.70;;;;;;;;;;5053215;28;20847;-56
2022/01/19 13:45:47;;;;;;;16.60;13.20;;;;;;;;;;5077550;28;20293;-57
2022/01/19 13:50:47;;;;;;;17.43;13.53;;;;;;;;;;5083450;28;20192;-57
2022/01/19 13:53:24;;;;;;;16.30;13.23;;;;;;;;;;5091154;28;20257;-57
2022/01/19 13:55:54;;;;;;;15.90;12.97;;;;;;;;;;5063801;28;20254;-57
2022/01/19 13:58:24;;;;;;;15.70;13.80;;;;;;;;;;5089478;28;20201;-57
2022/01/19 14:00:56;;;;;;;15.50;13.23;;;;;;;;;;5070476;28;20560;-57
2022/01/19 14:03:26;;;;;;;15.13;13.30;;;;;;;;;;5072222;28;20648;-56
2022/01/19 14:05:55;;;;;;;16.70;13.83;;;;;;;;;;5058785;28;20212;-58
2022/01/19 14:08:32;;;;;;;16.50;14.13;;;;;;;;;;5071943;28;20180;-57
2022/01/19 14:11:01;;;;;;;15.87;13.43;;;;;;;;;;5088712;28;20193;-57
2022/01/19 14:13:28;;;;;;;18.23;13.87;;;;;;;;;;5069708;28;20195;-57
2022/01/19 14:15:55;;;;;;;16.77;13.63;;;;;;;;;;5068709;28;20666;-57
2022/01/19 14:18:24;;;;;;;16.30;13.73;;;;;;;;;;5071662;28;20175;-56
2022/01/19 14:21:06;;;;;;;17.13;13.87;;;;;;;;;;5089583;28;20543;-57
2022/01/19 14:23:33;;;;;;;16.33;12.77;;;;;;;;;;5068567;28;20176;-57
2022/01/19 14:26:09;;;;;;;17.57;13.20;;;;;;;;;;5088293;28;20183;-57
2022/01/19 14:28:37;;;;;;;16.57;13.37;;;;;;;;;;5070606;28;20214;-57
2022/01/19 14:31:05;;;;;;;16.20;13.93;;;;;;;;;;5084942;28;20183;-56
2022/01/19 14:33:31;;;;;;;19.07;13.67;;;;;;;;;;5088818;28;20184;-57
2022/01/19 14:35:59;;;;;;;18.57;13.53;;;;;;;;;;5088813;28;20217;-57
2022/01/19 14:38:31;;;;;;;16.30;12.73;;;;;;;;;;5072078;28;20226;-57
2022/01/19 14:41:27;;;;;;;15.67;13.40;;;;;;;;;;5071305;28;20194;-57
2022/01/19 14:44:05;;;;;;;17.20;14.10;;;;;;;;;;5071900;28;20175;-56
2022/01/19 14:46:41;;;;;;;16.03;13.63;;;;;;;;;;5064443;28;20279;-57
2022/01/19 14:49:07;;;;;;;17.23;14.10;;;;;;;;;;5073945;28;20669;-57
2022/01/19 14:51:37;;;;;;;16.80;13.70;;;;;;;;;;5089807;28;20264;-56
2022/01/19 14:54:11;;;;;;;18.40;13.57;;;;;;;;;;5084220;28;20203;-57
2022/01/19 14:56:40;;;;;;;17.10;14.37;;;;;;;;;;5076568;28;20219;-57
2022/01/19 14:59:13;;;;;;;18.37;14.60;;;;;;;;;;5065442;28;20211;-56
2022/01/19 15:01:41;;;;;;;17.93;14.27;;;;;;;;;;5079021;28;20212;-57
2022/01/19 15:04:08;;;;;;;18.33;14.50;;;;;;;;;;5081811;28;20191;-57
2022/01/19 15:06:35;;;;;;;20.43;14.30;;;;;;;;;;5048637;28;20188;-56
2022/01/19 15:09:02;;;;;;;18.37;13.90;;;;;;;;;;5094136;28;20168;-56
2022/01/19 15:11:30;;;;;;;19.87;15.70;;;;;;;;;;5088408;28;20190;-57
2022/01/19 15:13:57;;;;;;;18.07;14.87;;;;;;;;;;5068550;28;20583;-57
2022/01/19 15:16:26;;;;;;;20.27;15.67;;;;;;;;;;5068600;28;20730;-57
2022/01/19 15:18:55;;;;;;;18.10;14.60;;;;;;;;;;5087812;28;20580;-57
2022/01/19 15:21:22;;;;;;;19.53;15.57;;;;;;;;;;5066922;28;20607;-57
2022/01/19 15:23:49;;;;;;;20.07;15.83;;;;;;;;;;5071768;28;20172;-57
2022/01/19 15:26:19;;;;;;;18.47;14.53;;;;;;;;;;5090340;28;20191;-57
2022/01/19 15:28:49;;;;;;;20.20;15.43;;;;;;;;;;5086950;28;20233;-57
2022/01/19 15:31:15;;;;;;;18.23;14.57;;;;;;;;;;5082466;28;20652;-57
2022/01/19 15:33:42;;;;;;;18.10;14.37;;;;;;;;;;5066966;28;20172;-57
2022/01/19 15:36:09;;;;;;;16.87;14.67;;;;;;;;;;5065867;28;21151;-56
2022/01/19 15:38:36;;;;;;;26.43;15.73;;;;;;;;;;5064206;28;20191;-56
2022/01/19 15:41:02;;;;;;;18.47;14.13;;;;;;;;;;5071428;28;20271;-57
2022/01/19 15:43:29;;;;;;;21.57;16.93;;;;;;;;;;5077717;28;20191;-57
2022/01/19 15:45:55;;;;;;;18.93;14.23;;;;;;;;;;5084039;28;20184;-57
2022/01/19 15:48:21;;;;;;;19.43;15.03;;;;;;;;;;5075135;28;20176;-57
2022/01/19 15:50:54;;;;;;;21.87;17.67;;;;;;;;;;5069133;28;20728;-56
2022/01/19 15:53:24;;;;;;;22.10;17.43;;;;;;;;;;5077445;28;20215;-57
2022/01/19 15:55:51;;;;;;;17.83;15.67;;;;;;;;;;5041458;28;20787;-56
2022/01/19 15:58:18;;;;;;;18.17;15.90;;;;;;;;;;5053129;28;20173;-57
2022/01/19 16:00:48;;;;;;;18.73;15.40;;;;;;;;;;5058713;28;20762;-56
2022/01/19 16:03:18;;;;;;;19.57;15.13;;;;;;;;;;5062815;28;20172;-56
2022/01/19 16:05:44;;;;;;;20.93;16.67;;;;;;;;;;5063014;28;20176;-56
2022/01/19 16:08:11;;;;;;;20.73;16.37;;;;;;;;;;5044665;28;20203;-56
2022/01/19 16:10:38;;;;;;;21.07;16.80;;;;;;;;;;5054624;28;20180;-56